createdAt,value
2023-04-24T00:01:11.458Z,99647.66
2023-04-24T00:03:40.146Z,99647.34
2023-04-24T00:06:09.269Z,99646.04
2023-04-24T00:08:36.984Z,99648.09
2023-04-24T00:11:04.283Z,99645.70
2023-04-24T00:13:31.590Z,99647.25
2023-04-24T00:15:58.530Z,99643.40
2023-04-24T00:18:25.625Z,99644.30
2023-04-24T00:20:52.582Z,99639.42
2023-04-24T00:23:19.506Z,99639.59
2023-04-24T00:25:46.429Z,99642.61
2023-04-24T00:28:13.347Z,99641.30
2023-04-24T00:30:41.591Z,99639.82
2023-04-24T00:33:08.631Z,99641.77
2023-04-24T00:35:35.762Z,99639.48
2023-04-24T00:38:02.651Z,99641.03
2023-04-24T00:40:30.046Z,99643.33
2023-04-24T00:42:57.533Z,99644.90
2023-04-24T00:45:24.643Z,99644.59
2023-04-24T00:47:53.322Z,99647.76
2023-04-24T00:50:22.500Z,99643.89
2023-04-24T00:52:50.163Z,99647.49
2023-04-24T00:55:18.119Z,99643.59
2023-04-24T00:57:58.645Z,99637.34
2023-04-24T01:00:26.696Z,99636.95
2023-04-24T01:02:56.353Z,99640.60
2023-04-24T01:05:34.527Z,99636.93
2023-04-24T01:08:04.514Z,99639.25
2023-04-24T01:10:40.137Z,99637.77
2023-04-24T01:13:21.497Z,99636.30
2023-04-24T01:15:52.324Z,99633.25
2023-04-24T01:18:19.609Z,99628.43
2023-04-24T01:20:46.639Z,99633.77
2023-04-24T01:23:17.447Z,99633.38
2023-04-24T01:25:47.795Z,99633.45
2023-04-24T01:28:15.377Z,99634.66
2023-04-24T01:30:42.324Z,99630.30
2023-04-24T01:33:09.248Z,99630.42
2023-04-24T01:35:37.238Z,99631.27
2023-04-24T01:38:04.784Z,99631.17
2023-04-24T01:40:31.872Z,99627.30
2023-04-24T01:42:59.321Z,99624.88
2023-04-24T01:45:26.334Z,99625.03
2023-04-24T01:47:53.389Z,99623.26
2023-04-24T01:50:20.386Z,99618.83
2023-04-24T01:52:47.345Z,99621.06
2023-04-24T01:55:14.222Z,99616.67
2023-04-24T01:57:41.094Z,99616.77
2023-04-24T02:00:08.802Z,99612.90
2023-04-24T02:02:43.126Z,99611.18
2023-04-24T02:05:12.121Z,99609.09
2023-04-24T02:07:39.006Z,99609.66
2023-04-24T02:10:06.418Z,99606.09
2023-04-24T02:12:33.582Z,99605.67
2023-04-24T02:15:00.493Z,99606.63
2023-04-24T02:17:27.543Z,99605.10
2023-04-24T02:19:54.627Z,99602.80
2023-04-24T02:22:21.459Z,99601.44
2023-04-24T02:24:48.297Z,99598.10
2023-04-24T02:27:16.443Z,99598.98
2023-04-24T02:29:43.645Z,99596.64
2023-04-24T02:32:13.240Z,99595.05
2023-04-24T02:34:40.859Z,99595.16
2023-04-24T02:37:07.770Z,99598.70
2023-04-24T02:39:34.718Z,99598.28
2023-04-24T02:42:02.914Z,99602.03
2023-04-24T02:44:31.011Z,99600.81
2023-04-24T02:46:57.958Z,99599.85
2023-04-24T02:49:24.901Z,99597.10
2023-04-24T02:51:51.867Z,99595.27
2023-04-24T02:54:19.052Z,99597.89
2023-04-24T02:56:46.094Z,99596.34
2023-04-24T02:59:12.998Z,99593.67
2023-04-24T03:01:40.022Z,99595.83
2023-04-24T03:04:07.483Z,99591.77
2023-04-24T03:06:36.451Z,99589.64
2023-04-24T03:09:04.742Z,99588.99
2023-04-24T03:11:32.443Z,99591.52
2023-04-24T03:13:59.480Z,99589.61
2023-04-24T03:16:26.525Z,99589.09
2023-04-24T03:18:55.996Z,99591.32
2023-04-24T03:21:23.980Z,99591.75
2023-04-24T03:23:51.035Z,99589.56
2023-04-24T03:26:18.561Z,99590.27
2023-04-24T03:28:55.908Z,99595.92
2023-04-24T03:31:23.345Z,99595.38
2023-04-24T03:33:50.625Z,99598.50
2023-04-24T03:36:18.440Z,99601.52
2023-04-24T03:38:45.391Z,99600.24
2023-04-24T03:41:27.998Z,99602.05
2023-04-24T03:44:10.292Z,99603.08
2023-04-24T03:46:37.616Z,99605.13
2023-04-24T03:49:04.545Z,99606.59
2023-04-24T03:51:34.488Z,99610.73
2023-04-24T03:54:12.452Z,99612.58
2023-04-24T03:56:40.372Z,99611.80
2023-04-24T03:59:08.168Z,99611.32
2023-04-24T04:01:38.360Z,99614.77
2023-04-24T04:04:17.122Z,99608.57
2023-04-24T04:06:47.991Z,99612.95
2023-04-24T04:09:19.203Z,99612.08
2023-04-24T04:11:46.385Z,99614.23
2023-04-24T04:14:13.420Z,99614.14
2023-04-24T04:16:41.398Z,99611.62
2023-04-24T04:19:08.775Z,99615.41
2023-04-24T04:21:35.805Z,99618.30
2023-04-24T04:24:11.520Z,99619.36
2023-04-24T04:26:47.438Z,99621.12
2023-04-24T04:29:21.339Z,99616.98
2023-04-24T04:31:48.602Z,99618.24
2023-04-24T04:34:15.796Z,99622.77
2023-04-24T04:36:44.097Z,99622.12
2023-04-24T04:39:32.458Z,99625.65
2023-04-24T04:42:02.259Z,99622.55
2023-04-24T04:44:47.411Z,99616.59
2023-04-24T04:47:20.793Z,99619.25
2023-04-24T04:49:47.784Z,99616.33
2023-04-24T04:52:20.385Z,99618.33
2023-04-24T04:55:54.986Z,99617.04
2023-04-24T04:58:26.692Z,99617.70
2023-04-24T05:00:56.223Z,99616.95
2023-04-24T05:03:27.777Z,99611.85
2023-04-24T05:06:03.572Z,99611.44
2023-04-24T05:08:32.386Z,99610.51
2023-04-24T05:10:59.325Z,99609.81
2023-04-24T05:13:39.369Z,99608.20
2023-04-24T05:16:15.534Z,99608.42
2023-04-24T05:18:42.818Z,99604.54
2023-04-24T05:21:11.204Z,99605.55
2023-04-24T05:23:39.629Z,99609.05
2023-04-24T05:26:07.837Z,99607.52
2023-04-24T05:28:37.843Z,99603.81
2023-04-24T05:31:08.563Z,99605.07
2023-04-24T05:33:36.140Z,99604.54
2023-04-24T05:36:03.608Z,99606.48
2023-04-24T05:38:30.589Z,99607.52
2023-04-24T05:40:57.477Z,99607.27
2023-04-24T05:43:24.575Z,99605.65
2023-04-24T05:45:51.463Z,99604.58
2023-04-24T05:48:18.692Z,99605.23
2023-04-24T05:50:45.741Z,99604.83
2023-04-24T05:53:12.832Z,99598.65
2023-04-24T05:55:39.828Z,99594.82
2023-04-24T05:58:07.220Z,99595.02
2023-04-24T06:00:34.595Z,99594.96
2023-04-24T06:03:05.012Z,99599.27
2023-04-24T06:05:32.692Z,99597.25
2023-04-24T06:07:59.740Z,99596.78
2023-04-24T06:10:30.575Z,99602.43
2023-04-24T06:13:01.460Z,99602.80
2023-04-24T06:15:31.683Z,99598.58
2023-04-24T06:18:03.913Z,99598.76
2023-04-24T06:20:30.884Z,99600.33
2023-04-24T06:22:57.765Z,99596.13
2023-04-24T06:25:30.615Z,99596.85
2023-04-24T06:27:57.984Z,99598.44
2023-04-24T06:30:24.805Z,99598.17
2023-04-24T06:32:51.994Z,99593.46
2023-04-24T06:35:18.876Z,99595.90
2023-04-24T06:37:45.710Z,99593.81
2023-04-24T06:40:12.681Z,99592.68
2023-04-24T06:42:39.643Z,99588.35
2023-04-24T06:45:09.142Z,99594.52
2023-04-24T06:47:36.022Z,99593.09
2023-04-24T06:50:02.894Z,99593.41
2023-04-24T06:52:29.874Z,99596.49
2023-04-24T06:55:02.559Z,99596.80
2023-04-24T06:57:30.101Z,99597.10
2023-04-24T06:59:57.112Z,99600.23
2023-04-24T07:02:24.630Z,99595.39
2023-04-24T07:04:53.937Z,99594.63
2023-04-24T07:07:27.847Z,99594.25
2023-04-24T07:09:57.671Z,99599.08
2023-04-24T07:12:32.272Z,99595.35
2023-04-24T07:17:45.647Z,99607.34
2023-04-24T07:20:21.080Z,99608.65
2023-04-24T07:22:50.579Z,99605.21
2023-04-24T07:25:19.146Z,99608.45
2023-04-24T07:27:46.596Z,99605.79
2023-04-24T07:30:13.609Z,99600.52
2023-04-24T07:32:40.678Z,99602.89
2023-04-24T07:35:08.754Z,99598.77
2023-04-24T07:37:35.645Z,99602.26
2023-04-24T07:40:02.703Z,99602.39
2023-04-24T07:42:31.617Z,99603.19
2023-04-24T07:44:58.618Z,99598.20
2023-04-24T07:47:25.949Z,99595.34
2023-04-24T07:49:53.031Z,99593.41
2023-04-24T07:52:19.942Z,99590.66
2023-04-24T07:54:46.837Z,99591.21
2023-04-24T07:57:15.161Z,99591.30
2023-04-24T07:59:42.474Z,99590.86
2023-04-24T08:02:11.127Z,99596.54
2023-04-24T08:05:56.702Z,99596.19
2023-04-24T08:08:24.043Z,99599.23
2023-04-24T08:10:51.233Z,99599.92
2023-04-24T08:13:19.276Z,99599.95
2023-04-24T08:15:46.493Z,99594.49
2023-04-24T08:18:15.033Z,99594.93
2023-04-24T08:20:42.057Z,99591.77
2023-04-24T08:23:09.219Z,99591.20
2023-04-24T08:25:36.554Z,99594.05
2023-04-24T08:28:05.075Z,99578.08
2023-04-24T08:30:32.077Z,99580.95
2023-04-24T08:32:59.207Z,99581.88
2023-04-24T08:35:26.407Z,99579.09
2023-04-24T08:37:54.863Z,99568.91
2023-04-24T08:40:24.244Z,99570.98
2023-04-24T08:42:51.315Z,99566.18
2023-04-24T08:45:18.299Z,99567.80
2023-04-24T08:47:46.405Z,99573.92
2023-04-24T08:50:13.920Z,99569.10
2023-04-24T08:52:40.820Z,99566.98
2023-04-24T08:55:08.082Z,99565.30
2023-04-24T08:57:39.312Z,99565.45
2023-04-24T09:00:11.866Z,99563.66
2023-04-24T09:02:44.829Z,99550.95
2023-04-24T09:05:12.415Z,99548.06
2023-04-24T09:07:39.716Z,99547.58
2023-04-24T09:10:07.245Z,99546.36
2023-04-24T09:12:35.658Z,99547.98
2023-04-24T09:15:06.334Z,99553.35
2023-04-24T09:17:33.568Z,99548.67
2023-04-24T09:20:03.646Z,99540.68
2023-04-24T09:22:32.123Z,99549.75
2023-04-24T09:25:08.189Z,99546.64
2023-04-24T09:27:37.682Z,99532.96
2023-04-24T09:30:05.176Z,99533.66
2023-04-24T09:32:34.077Z,99525.41
2023-04-24T09:35:09.328Z,99522.84
2023-04-24T09:37:48.374Z,99523.61
2023-04-24T09:40:20.007Z,99521.17
2023-04-24T09:42:53.461Z,99522.67
2023-04-24T09:45:21.448Z,99516.73
2023-04-24T09:47:48.619Z,99512.84
2023-04-24T09:50:22.506Z,99505.20
2023-04-24T09:53:01.175Z,99511.63
2023-04-24T09:55:29.192Z,99512.65
2023-04-24T09:58:01.290Z,99501.41
2023-04-24T10:00:29.765Z,99507.14
2023-04-24T10:03:03.518Z,99500.77
2023-04-24T10:05:32.387Z,99495.46
2023-04-24T10:08:05.387Z,99497.94
2023-04-24T10:10:33.229Z,99504.02
2023-04-24T10:13:02.651Z,99504.79
2023-04-24T10:15:29.619Z,99493.34
2023-04-24T10:17:56.527Z,99501.34
2023-04-24T10:20:25.038Z,99498.23
2023-04-24T10:22:53.358Z,99492.38
2023-04-24T10:25:24.784Z,99498.61
2023-04-24T10:27:52.513Z,99487.73
2023-04-24T10:30:20.352Z,99491.45
2023-04-24T10:32:47.300Z,99484.37
2023-04-24T10:35:14.904Z,99475.41
2023-04-24T10:37:52.098Z,99475.88
2023-04-24T10:40:22.572Z,99476.84
2023-04-24T10:42:50.240Z,99475.66
2023-04-24T10:45:19.096Z,99473.21
2023-04-24T10:48:04.348Z,99480.02
2023-04-24T10:50:52.842Z,99478.74
2023-04-24T10:53:24.488Z,99481.66
2023-04-24T10:55:52.379Z,99480.27
2023-04-24T10:58:26.451Z,99476.66
2023-04-24T11:00:58.721Z,99473.67
2023-04-24T11:03:28.966Z,99474.37
2023-04-24T11:06:06.097Z,99473.53
2023-04-24T11:08:46.408Z,99470.65
2023-04-24T11:11:17.939Z,99462.70
2023-04-24T11:14:05.660Z,99459.83
2023-04-24T11:16:36.715Z,99464.59
2023-04-24T11:19:12.363Z,99455.71
2023-04-24T11:21:44.287Z,99448.69
2023-04-24T11:24:32.674Z,99450.53
2023-04-24T11:27:05.720Z,99443.95
2023-04-24T11:29:54.285Z,99444.60
2023-04-24T11:32:37.833Z,99447.95
2023-04-24T11:35:38.902Z,99448.62
2023-04-24T11:40:37.293Z,99451.19
2023-04-24T11:43:07.544Z,99443.45
2023-04-24T11:45:35.115Z,99443.45
2023-04-24T11:48:03.757Z,99441.67
2023-04-24T11:50:31.688Z,99443.15
2023-04-24T11:52:59.440Z,99448.14
2023-04-24T11:55:28.959Z,99457.48
2023-04-24T11:58:00.617Z,99469.23
2023-04-24T12:00:37.782Z,99466.77
2023-04-24T12:03:08.512Z,99462.14
2023-04-24T12:05:36.260Z,99477.95
2023-04-24T12:08:03.516Z,99478.47
2023-04-24T12:10:33.547Z,99464.83
2023-04-24T12:13:01.494Z,99472.20
2023-04-24T12:15:28.780Z,99471.06
2023-04-24T12:17:56.563Z,99456.20
2023-04-24T12:20:27.743Z,99456.73
2023-04-24T12:22:56.122Z,99453.09
2023-04-24T12:25:24.670Z,99460.33
2023-04-24T12:28:15.196Z,99455.55
2023-04-24T12:30:45.482Z,99464.16
2023-04-24T12:33:12.631Z,99465.95
2023-04-24T12:35:41.324Z,99466.38
2023-04-24T12:38:09.641Z,99464.22
2023-04-24T12:40:36.881Z,99481.63
2023-04-24T12:43:16.864Z,99470.72
2023-04-24T12:45:55.233Z,99455.14
2023-04-24T12:48:29.099Z,99448.16
2023-04-24T12:51:01.759Z,99468.86
2023-04-24T12:53:31.114Z,99468.20
2023-04-24T12:55:59.352Z,99456.36
2023-04-24T12:58:26.374Z,99451.38
2023-04-24T13:00:53.367Z,99465.46
2023-04-24T13:03:21.017Z,99450.83
2023-04-24T13:05:48.279Z,99449.20
2023-04-24T13:08:15.361Z,99440.84
2023-04-24T13:10:42.540Z,99436.47
2023-04-24T13:13:12.028Z,99437.19
2023-04-24T13:15:39.086Z,99437.20
2023-04-24T13:18:06.129Z,99434.08
2023-04-24T13:20:33.355Z,99431.28
2023-04-24T13:23:01.156Z,99426.92
2023-04-24T13:25:29.422Z,99425.32
2023-04-24T13:27:56.310Z,99424.32
2023-04-24T13:30:23.312Z,99423.44
2023-04-24T13:32:50.414Z,99415.67
2023-04-24T13:35:17.451Z,99412.19
2023-04-24T13:37:44.375Z,99407.06
2023-04-24T13:40:11.765Z,99401.21
2023-04-24T13:42:39.249Z,99401.13
2023-04-24T13:45:21.338Z,99396.39
2023-04-24T13:47:52.913Z,99392.91
2023-04-24T13:50:21.407Z,99387.04
2023-04-24T13:52:48.312Z,99381.95
2023-04-24T13:55:15.435Z,99382.41
2023-04-24T13:57:42.336Z,99379.83
2023-04-24T14:00:11.741Z,99380.51
2023-04-24T14:02:39.025Z,99378.58
2023-04-24T14:05:07.813Z,99377.76
2023-04-24T14:07:34.831Z,99374.25
2023-04-24T14:10:01.719Z,99376.63
2023-04-24T14:12:28.732Z,99383.23
2023-04-24T14:14:55.766Z,99383.01
2023-04-24T14:17:23.462Z,99388.81
2023-04-24T14:19:51.562Z,99388.27
2023-04-24T14:22:18.575Z,99394.11
2023-04-24T14:24:45.484Z,99388.40
2023-04-24T14:27:12.304Z,99382.77
2023-04-24T14:29:39.187Z,99377.89
2023-04-24T14:32:06.378Z,99386.20
2023-04-24T14:34:33.386Z,99392.02
2023-04-24T14:37:01.360Z,99377.80
2023-04-24T14:39:29.834Z,99374.77
2023-04-24T14:41:56.776Z,99378.48
2023-04-24T14:44:23.767Z,99371.81
2023-04-24T14:46:51.049Z,99369.36
2023-04-24T14:49:18.116Z,99371.92
2023-04-24T14:51:45.080Z,99370.25
2023-04-24T14:54:11.910Z,99367.69
2023-04-24T14:56:41.870Z,99365.73
2023-04-24T14:59:08.917Z,99362.95
2023-04-24T15:01:36.042Z,99356.07
2023-04-24T15:04:04.679Z,99357.10
2023-04-24T15:06:32.959Z,99352.89
2023-04-24T15:09:01.113Z,99347.13
2023-04-24T15:11:29.292Z,99351.70
2023-04-24T15:13:57.211Z,99346.09
2023-04-24T15:16:25.616Z,99342.55
2023-04-24T15:18:53.632Z,99342.07
2023-04-24T15:21:20.712Z,99341.54
2023-04-24T15:23:47.843Z,99337.23
2023-04-24T15:26:15.286Z,99338.21
2023-04-24T15:28:42.271Z,99336.78
2023-04-24T15:31:09.185Z,99335.11
2023-04-24T15:33:36.330Z,99330.80
2023-04-24T15:36:03.221Z,99332.42
2023-04-24T15:38:30.340Z,99327.48
2023-04-24T15:40:57.309Z,99324.54
2023-04-24T15:43:24.338Z,99322.48
2023-04-24T15:45:51.363Z,99321.04
2023-04-24T15:48:18.395Z,99320.30
2023-04-24T15:50:45.634Z,99318.33
2023-04-24T15:53:12.572Z,99315.06
2023-04-24T15:55:39.566Z,99313.43
2023-04-24T15:58:06.439Z,99307.02
2023-04-24T16:00:35.209Z,99305.34
2023-04-24T16:03:02.431Z,99306.48
2023-04-24T16:05:29.477Z,99302.73
2023-04-24T16:07:57.052Z,99302.10
2023-04-24T16:10:24.038Z,99297.67
2023-04-24T16:12:53.400Z,99299.56
2023-04-24T16:15:23.622Z,99297.72
2023-04-24T16:17:50.762Z,99296.91
2023-04-24T16:20:17.726Z,99294.99
2023-04-24T16:22:45.047Z,99291.91
2023-04-24T16:25:12.119Z,99292.23
2023-04-24T16:27:39.741Z,99286.19
2023-04-24T16:30:09.673Z,99288.05
2023-04-24T16:32:36.898Z,99283.75
2023-04-24T16:35:04.066Z,99286.58
2023-04-24T16:37:31.195Z,99286.92
2023-04-24T16:39:58.124Z,99285.73
2023-04-24T16:42:25.018Z,99282.06
2023-04-24T16:44:52.074Z,99281.48
2023-04-24T16:47:19.291Z,99285.20
2023-04-24T16:49:46.348Z,99285.23
2023-04-24T16:52:13.476Z,99282.11
2023-04-24T16:54:40.686Z,99283.86
2023-04-24T16:57:08.027Z,99282.64
2023-04-24T16:59:35.174Z,99283.04
2023-04-24T17:02:02.124Z,99281.98
2023-04-24T17:04:29.183Z,99282.05
2023-04-24T17:06:56.254Z,99280.33
2023-04-24T17:09:23.151Z,99281.00
2023-04-24T17:13:34.000Z,99283.77
2023-04-24T17:16:08.384Z,99285.65
2023-04-24T17:18:35.413Z,99286.17
2023-04-24T17:21:02.265Z,99285.40
2023-04-24T17:23:29.248Z,99282.34
2023-04-24T17:25:56.680Z,99286.63
2023-04-24T17:28:31.104Z,99291.16
2023-04-24T17:30:58.633Z,99289.15
2023-04-24T17:33:26.622Z,99296.15
2023-04-24T17:35:54.170Z,99296.61
2023-04-24T17:38:21.225Z,99299.84
2023-04-24T17:40:48.095Z,99301.08
2023-04-24T17:43:18.418Z,99295.60
2023-04-24T17:45:46.422Z,99299.65
2023-04-24T17:48:14.024Z,99300.52
2023-04-24T17:50:41.324Z,99300.81
2023-04-24T17:53:08.438Z,99297.19
2023-04-24T17:55:35.382Z,99296.90
2023-04-24T17:58:03.158Z,99300.48
2023-04-24T18:00:31.265Z,99301.39
2023-04-24T18:03:01.360Z,99303.62
2023-04-24T18:05:33.221Z,99303.98
2023-04-24T18:08:00.390Z,99309.10
2023-04-24T18:10:28.504Z,99308.34
2023-04-24T18:12:55.449Z,99312.51
2023-04-24T18:15:22.401Z,99315.42
2023-04-24T18:17:49.619Z,99315.92
2023-04-24T18:20:17.356Z,99318.41
2023-04-24T18:22:44.505Z,99317.16
2023-04-24T18:25:11.666Z,99315.17
2023-04-24T18:27:39.576Z,99317.59
2023-04-24T18:30:08.171Z,99321.88
2023-04-24T18:32:35.668Z,99321.13
2023-04-24T18:35:03.503Z,99325.68
2023-04-24T18:37:33.060Z,99332.25
2023-04-24T18:40:00.126Z,99331.67
2023-04-24T18:42:27.382Z,99333.11
2023-04-24T18:44:54.396Z,99333.73
2023-04-24T18:47:21.501Z,99338.41
2023-04-24T18:49:48.693Z,99336.39
2023-04-24T18:52:15.722Z,99339.17
2023-04-24T18:54:42.714Z,99339.05
2023-04-24T18:57:09.615Z,99334.81
2023-04-24T18:59:37.479Z,99335.48
2023-04-24T19:02:04.428Z,99332.42
2023-04-24T19:04:31.449Z,99334.80
2023-04-24T19:06:58.359Z,99334.23
2023-04-24T19:09:25.280Z,99335.33
2023-04-24T19:11:52.145Z,99333.88
2023-04-24T19:14:19.643Z,99331.48
2023-04-24T19:16:46.600Z,99327.31
2023-04-24T19:19:13.499Z,99328.09
2023-04-24T19:21:40.724Z,99328.28
2023-04-24T19:24:09.666Z,99328.44
2023-04-24T19:26:36.940Z,99332.65
2023-04-24T19:29:03.954Z,99328.49
2023-04-24T19:31:30.958Z,99331.96
2023-04-24T19:33:57.962Z,99324.15
2023-04-24T19:36:24.898Z,99331.98
2023-04-24T19:38:52.145Z,99325.08
2023-04-24T19:41:19.040Z,99327.20
2023-04-24T19:43:47.473Z,99327.27
2023-04-24T19:46:14.443Z,99321.81
2023-04-24T19:48:41.574Z,99318.34
2023-04-24T19:51:08.517Z,99316.27
2023-04-24T19:53:35.476Z,99315.14
2023-04-24T19:56:02.369Z,99317.42
2023-04-24T19:58:31.160Z,99313.55
2023-04-24T20:00:58.249Z,99314.20
2023-04-24T20:03:32.938Z,99312.52
2023-04-24T20:06:01.275Z,99315.75
2023-04-24T20:08:28.288Z,99317.27
2023-04-24T20:10:59.041Z,99312.62
2023-04-24T20:13:28.209Z,99314.36
2023-04-24T20:15:55.370Z,99315.27
2023-04-24T20:18:22.547Z,99313.91
2023-04-24T20:20:49.723Z,99311.64
2023-04-24T20:23:16.703Z,99314.17
2023-04-24T20:25:43.570Z,99317.54
2023-04-24T20:28:10.734Z,99313.51
2023-04-24T20:30:38.253Z,99312.34
2023-04-24T20:33:05.302Z,99315.48
2023-04-24T20:35:32.365Z,99313.91
2023-04-24T20:37:59.714Z,99313.53
2023-04-24T20:40:30.476Z,99318.11
2023-04-24T20:42:59.136Z,99319.77
2023-04-24T20:45:26.420Z,99318.02
2023-04-24T20:47:56.040Z,99311.86
2023-04-24T20:50:23.412Z,99309.55
2023-04-24T20:52:50.634Z,99308.27
2023-04-24T20:55:17.790Z,99307.17
2023-04-24T20:57:44.805Z,99306.88
2023-04-24T21:00:13.174Z,99307.70
2023-04-24T21:02:40.403Z,99309.53
2023-04-24T21:05:08.328Z,99308.04
2023-04-24T21:07:36.185Z,99305.67
2023-04-24T21:10:03.343Z,99298.66
2023-04-24T21:12:30.249Z,99298.74
2023-04-24T21:14:57.278Z,99299.90
2023-04-24T21:17:24.375Z,99300.27
2023-04-24T21:19:51.381Z,99298.64
2023-04-24T21:22:18.426Z,99301.57
2023-04-24T21:24:46.346Z,99303.66
2023-04-24T21:27:13.304Z,99299.15
2023-04-24T21:29:40.517Z,99304.69
2023-04-24T21:32:07.650Z,99307.15
2023-04-24T21:34:34.668Z,99304.55
2023-04-24T21:37:01.788Z,99299.18
2023-04-24T21:39:28.786Z,99299.41
2023-04-24T21:41:56.171Z,99297.56
2023-04-24T21:44:23.229Z,99289.45
2023-04-24T21:46:50.363Z,99292.00
2023-04-24T21:49:17.564Z,99287.95
2023-04-24T21:51:44.523Z,99288.73
2023-04-24T21:54:11.500Z,99289.23
2023-04-24T21:56:39.326Z,99285.97
2023-04-24T21:59:06.234Z,99285.12
2023-04-24T22:01:33.908Z,99283.70
2023-04-24T22:04:03.310Z,99280.92
2023-04-24T22:06:32.272Z,99284.66
2023-04-24T22:08:59.446Z,99282.83
2023-04-24T22:11:27.409Z,99283.23
2023-04-24T22:13:55.002Z,99286.56
2023-04-24T22:16:23.962Z,99281.70
2023-04-24T22:18:53.812Z,99283.00
2023-04-24T22:21:21.685Z,99279.91
2023-04-24T22:23:49.997Z,99280.02
2023-04-24T22:26:17.626Z,99274.26
2023-04-24T22:28:46.085Z,99279.34
2023-04-24T22:31:14.946Z,99275.67
2023-04-24T22:33:42.641Z,99271.11
2023-04-24T22:36:09.612Z,99267.56
2023-04-24T22:38:36.470Z,99272.44
2023-04-24T22:41:03.456Z,99270.70
2023-04-24T22:43:31.614Z,99264.23
2023-04-24T22:45:58.600Z,99262.36
2023-04-24T22:48:26.292Z,99261.38
2023-04-24T22:50:53.426Z,99258.89
2023-04-24T22:53:20.389Z,99259.15
2023-04-24T22:55:47.234Z,99255.41
2023-04-24T22:58:14.093Z,99256.29
2023-04-24T23:00:41.016Z,99253.46
2023-04-24T23:03:08.024Z,99259.63
2023-04-24T23:05:35.147Z,99252.43
2023-04-24T23:08:01.997Z,99246.77
2023-04-24T23:10:28.924Z,99244.33
2023-04-24T23:12:56.184Z,99242.81
2023-04-24T23:15:23.245Z,99241.52
2023-04-24T23:17:50.318Z,99241.21
2023-04-24T23:20:17.313Z,99240.20
2023-04-24T23:22:44.278Z,99241.17
2023-04-24T23:25:11.348Z,99243.23
2023-04-24T23:27:38.238Z,99245.17
2023-04-24T23:30:06.849Z,99244.83
2023-04-24T23:32:34.029Z,99243.92
2023-04-24T23:35:00.990Z,99243.13
2023-04-24T23:37:28.078Z,99242.95
2023-04-24T23:39:55.138Z,99237.08
2023-04-24T23:42:22.100Z,99235.71
2023-04-24T23:44:48.945Z,99232.05
2023-04-24T23:47:15.824Z,99224.88
2023-04-24T23:49:42.761Z,99222.54
2023-04-24T23:52:09.784Z,99223.45
2023-04-24T23:54:37.125Z,99212.71
2023-04-24T23:57:04.663Z,99214.29
2023-04-24T23:59:31.552Z,99210.31
